Pagrindinis puslapis
METAR-TAF:

METAR-TAF

Oro uostai :

Noršiopingas, Švedija

platuma: 58-35N, ilguma: 016-09E, Aukštis: 34 m

Dabartinis oras

Ataskaita buvo paskelbta 28 minutes, ne 06:20 UTC
Vėjas 13 kt iš Šiaurės/Šiaurės Rytų
Temperatūra -2°C
Drėgmė 86%
Slėgis 987 hPa
Matomumas 10 km arba daugiau
Su prošvaistėmis ne aukštis 1100 ft

METAR: ESSP 020620Z 02013KT 9999 BKN011 M02/M04 Q0987

Laikas: 07:48 (06:48 UTC)

Prognozė

Ataskaita buvo paskelbta 1 valandą ir 18 minutes, ne 05:30 UTC
Prognozė galioja nuo 02 metu 06 UTC su 02 metu 15 UTC
Vėjas 5 kt iš Šiaurės/Šiaurės Rytų
Matomumas 10 km arba daugiau
Mažai debesys ne aukštis 700 ft
Laikinai
nuo 02 metu 06 UTC su 02 metu 08 UTC
Matomumas: 2500 m
ne aukštis 800 ft
sniegas

TAF: ESSP 020530Z 0206/0215 03005KT 9999 FEW007 TEMPO 0206/0208 2500 SN VV008

Orai ataskaitas ir orų prognozės (METAR, TAF).

turimą stotys yra geltonos ir raudonos taškus žemėlapyje.

Perkelti pele per norėdami pamatyti stoties vardą.

Tada spustelėkite, norėdami matyti oro stebėjimo ir prognozės.

Norėdami pakeisti žemėlapį: spustelėkite ant žalios mygtukų su juodo kryžiaus žemyn,; žalią mygtuką su brūkšneliu, jei norite nutolinti; arba žalių rodyklių gretimoms žemėlapius.


METAR-TAF: